Time;durP1;ratioP1;P1;durP2;ratioP2;P2;SDS_P1;SDS_P2;PMS_P1;PMS_P2;Temp;Humidity;BMP_temperature;BMP_pressure;BME280_temperature;BME280_humidity;BME280_pressure;Samples;Min_cycle;Max_cycle;Signal;HPM_P1;HPM_P2
2023/01/18 00:00:36;;;;;;;21.10;9.13;;;1.10;99.90;;;;;;4922551;29;20038;-93
2023/01/18 00:03:03;;;;;;;16.55;8.57;;;1.10;99.90;;;;;;4922852;29;20118;-95
2023/01/18 00:05:29;;;;;;;15.68;8.02;;;1.10;99.90;;;;;;4923866;29;20038;-93
2023/01/18 00:07:55;;;;;;;11.38;6.70;;;1.10;99.90;;;;;;4914090;29;20024;-95
2023/01/18 00:10:22;;;;;;;11.68;5.97;;;1.10;99.90;;;;;;4920283;29;20027;-95
2023/01/18 00:12:49;;;;;;;8.27;4.93;;;1.10;99.90;;;;;;4923062;29;20027;-93
2023/01/18 00:15:15;;;;;;;8.02;4.13;;;1.10;99.90;;;;;;4938633;29;20164;-93
2023/01/18 00:17:46;;;;;;;7.28;3.10;;;1.10;99.90;;;;;;4921406;29;20024;-93
2023/01/18 00:20:15;;;;;;;2.92;2.53;;;1.10;99.90;;;;;;4938562;29;20038;-93
2023/01/18 00:22:41;;;;;;;5.85;2.92;;;1.10;99.90;;;;;;4921288;29;20023;-95
2023/01/18 00:25:09;;;;;;;6.53;3.15;;;1.00;99.90;;;;;;4922375;29;20026;-92
2023/01/18 00:27:36;;;;;;;6.03;4.13;;;1.00;99.90;;;;;;4939182;29;20032;-93
2023/01/18 00:30:04;;;;;;;6.65;4.05;;;1.00;99.90;;;;;;4922000;29;20119;-93
2023/01/18 00:32:30;;;;;;;7.82;4.25;;;1.00;99.90;;;;;;4923771;29;20064;-94
2023/01/18 00:34:55;;;;;;;6.43;3.72;;;1.10;99.90;;;;;;4939924;29;20047;-93
2023/01/18 00:37:23;;;;;;;5.60;4.20;;;1.10;99.90;;;;;;4938936;29;20456;-95
2023/01/18 00:39:49;;;;;;;7.60;3.67;;;1.00;99.90;;;;;;4921612;29;20042;-94
2023/01/18 00:44:59;;;;;;;7.65;5.03;;;1.10;99.90;;;;;;4938723;29;20083;-95
2023/01/18 00:47:25;;;;;;;11.07;6.10;;;1.10;99.90;;;;;;4921426;29;20023;-93
2023/01/18 00:49:51;;;;;;;9.65;5.13;;;1.10;99.90;;;;;;4921645;29;20024;-94
2023/01/18 00:52:17;;;;;;;7.90;4.65;;;1.10;99.90;;;;;;4920705;29;20074;-92
2023/01/18 00:54:43;;;;;;;7.57;4.38;;;1.10;99.90;;;;;;4938092;29;20043;-92
2023/01/18 00:57:08;;;;;;;3.65;2.28;;;1.10;99.90;;;;;;4921228;29;20022;-92
2023/01/18 00:59:34;;;;;;;2.20;1.77;;;1.10;99.90;;;;;;4920692;29;20413;-94
2023/01/18 01:01:59;;;;;;;6.55;3.65;;;1.10;99.90;;;;;;4921130;29;20116;-93
2023/01/18 01:07:10;;;;;;;5.53;3.58;;;1.10;99.90;;;;;;4938540;29;20071;-93
2023/01/18 01:09:36;;;;;;;4.85;3.50;;;1.10;99.90;;;;;;4938581;29;20031;-93
2023/01/18 01:26:07;;;;;;;5.28;3.88;;;1.20;99.90;;;;;;4938221;29;20556;-93
2023/01/18 01:28:44;;;;;;;7.40;4.25;;;1.20;99.90;;;;;;4939246;29;20039;-91
2023/01/18 01:31:14;;;;;;;7.30;3.97;;;1.20;99.90;;;;;;4938084;29;20032;-93
2023/01/18 01:33:40;;;;;;;10.35;4.85;;;1.20;99.90;;;;;;4914690;29;20043;-93
2023/01/18 01:36:12;;;;;;;6.25;3.00;;;1.20;99.90;;;;;;4921014;29;20035;-92
2023/01/18 01:38:40;;;;;;;7.90;4.43;;;1.20;99.90;;;;;;4933418;29;20028;-92
2023/01/18 01:41:07;;;;;;;8.77;4.97;;;1.20;99.90;;;;;;4919049;29;20504;-92
2023/01/18 01:43:54;;;;;;;9.57;5.07;;;1.10;99.90;;;;;;4920438;29;20102;-92
2023/01/18 01:46:39;;;;;;;10.38;5.53;;;1.10;99.90;;;;;;4921044;29;20032;-93
2023/01/18 01:49:09;;;;;;;8.15;5.07;;;1.10;99.90;;;;;;4937654;29;20044;-93
2023/01/18 01:51:39;;;;;;;12.65;5.20;;;1.10;99.90;;;;;;4920541;29;20055;-93
2023/01/18 01:54:16;;;;;;;7.05;4.15;;;1.10;99.90;;;;;;4920823;29;20552;-94
2023/01/18 01:56:45;;;;;;;10.20;5.15;;;1.10;99.90;;;;;;4917877;29;20032;-93
2023/01/18 01:59:11;;;;;;;8.50;5.10;;;1.10;99.90;;;;;;4920421;29;20043;-93
2023/01/18 02:01:38;;;;;;;10.75;4.43;;;1.10;99.90;;;;;;4920356;29;20128;-93
2023/01/18 02:04:04;;;;;;;13.23;6.30;;;1.00;99.90;;;;;;4920180;29;20051;-93
2023/01/18 02:06:36;;;;;;;5.95;4.38;;;1.10;99.90;;;;;;4937653;29;20028;-95
2023/01/18 02:09:08;;;;;;;11.50;5.95;;;1.00;99.90;;;;;;4921205;29;20028;-93
2023/01/18 02:11:34;;;;;;;8.45;5.50;;;1.00;99.90;;;;;;4937071;29;20032;-94
2023/01/18 02:14:06;;;;;;;9.20;5.40;;;1.10;99.90;;;;;;4920117;29;20087;-93
2023/01/18 02:16:47;;;;;;;32.58;5.95;;;1.10;99.90;;;;;;4920692;29;20036;-94
2023/01/18 02:19:55;;;;;;;13.60;6.57;;;1.10;99.90;;;;;;4920247;29;20074;-94
2023/01/18 02:22:43;;;;;;;12.88;6.65;;;1.10;99.90;;;;;;4863958;29;20048;-93
2023/01/18 02:25:40;;;;;;;18.77;7.47;;;1.10;99.90;;;;;;4867663;29;20029;-93
2023/01/18 02:28:16;;;;;;;10.02;5.43;;;1.10;99.90;;;;;;4867229;29;20515;-95
2023/01/18 02:31:08;;;;;;;18.00;7.50;;;1.10;99.90;;;;;;4867987;29;20029;-93
2023/01/18 02:33:50;;;;;;;20.63;7.75;;;1.10;99.90;;;;;;4864181;29;20120;-93
2023/01/18 02:36:30;;;;;;;18.13;7.68;;;1.10;99.90;;;;;;4863999;29;20422;-95
2023/01/18 02:39:02;;;;;;;13.52;6.20;;;1.10;99.90;;;;;;4863350;29;20174;-93
2023/01/18 02:47:16;;;;;;;23.83;8.27;;;1.10;99.90;;;;;;4878734;29;20102;-94
2023/01/18 02:49:42;;;;;;;18.33;8.10;;;1.20;99.90;;;;;;4862817;29;20048;-93
2023/01/18 02:52:33;;;;;;;20.73;9.10;;;1.10;99.90;;;;;;4862705;29;20087;-93
2023/01/18 02:54:59;;;;;;;24.38;8.35;;;1.10;99.90;;;;;;4878062;29;20498;-93
2023/01/18 02:57:25;;;;;;;14.27;6.97;;;1.10;99.90;;;;;;4862807;29;20049;-92
2023/01/18 02:59:54;;;;;;;18.38;7.45;;;1.10;99.90;;;;;;4909931;29;20066;-93
2023/01/18 03:02:23;;;;;;;17.67;8.88;;;1.10;99.90;;;;;;4936643;29;20219;-92
2023/01/18 03:04:53;;;;;;;19.00;8.68;;;1.10;99.90;;;;;;4919449;29;20024;-92
2023/01/18 03:07:28;;;;;;;21.52;7.97;;;1.10;99.90;;;;;;4936474;29;20545;-93
2023/01/18 03:09:55;;;;;;;17.10;7.72;;;1.10;99.90;;;;;;4919359;29;20042;-94
2023/01/18 03:12:44;;;;;;;15.98;8.13;;;1.10;99.90;;;;;;4936246;29;20028;-92
2023/01/18 03:15:45;;;;;;;15.85;7.20;;;1.10;99.90;;;;;;4919599;29;20103;-93
2023/01/18 03:18:14;;;;;;;14.88;6.55;;;1.10;99.90;;;;;;4936004;29;20167;-94
2023/01/18 03:20:45;;;;;;;14.25;5.97;;;1.10;99.90;;;;;;4936305;29;20043;-93
2023/01/18 03:26:17;;;;;;;18.00;8.02;;;1.10;99.90;;;;;;4927693;29;20035;-93
2023/01/18 03:34:34;;;;;;;13.88;7.47;;;1.20;99.90;;;;;;4936413;29;20480;-93
2023/01/18 03:37:05;;;;;;;15.85;5.57;;;1.20;99.90;;;;;;4936619;29;20051;-94
2023/01/18 03:39:41;;;;;;;10.43;4.40;;;1.30;99.90;;;;;;4919014;29;20036;-92
2023/01/18 03:42:15;;;;;;;11.23;5.55;;;1.20;99.90;;;;;;4936037;29;20030;-93
2023/01/18 03:44:48;;;;;;;9.40;5.28;;;1.30;99.90;;;;;;4935939;29;20027;-93
2023/01/18 03:47:14;;;;;;;9.55;4.72;;;1.20;99.90;;;;;;4919383;29;20497;-92
2023/01/18 03:49:39;;;;;;;14.55;5.20;;;1.30;99.90;;;;;;4919327;29;20043;-93
2023/01/18 03:52:29;;;;;;;8.90;4.97;;;1.30;99.90;;;;;;4935867;29;20043;-94
2023/01/18 03:55:02;;;;;;;8.30;4.60;;;1.30;99.90;;;;;;4919332;29;20032;-94
2023/01/18 03:57:41;;;;;;;4.47;2.58;;;1.20;99.90;;;;;;4919761;29;20370;-93
2023/01/18 04:00:09;;;;;;;7.10;3.97;;;1.20;99.90;;;;;;4919369;29;20066;-94
2023/01/18 04:02:36;;;;;;;8.18;4.95;;;1.20;99.90;;;;;;4918633;29;20056;-94
2023/01/18 04:05:03;;;;;;;14.40;4.68;;;1.20;99.90;;;;;;4919129;29;20458;-94
2023/01/18 04:07:32;;;;;;;6.03;4.20;;;1.30;99.90;;;;;;4919089;29;20035;-93
2023/01/18 04:09:59;;;;;;;6.93;3.72;;;1.30;99.90;;;;;;4918873;29;20131;-93
2023/01/18 04:12:25;;;;;;;8.55;3.67;;;1.30;99.90;;;;;;4935859;29;20024;-93
2023/01/18 04:14:51;;;;;;;8.27;5.18;;;1.30;99.90;;;;;;4936051;29;20078;-94
2023/01/18 04:17:17;;;;;;;12.30;6.47;;;1.30;99.90;;;;;;4919122;29;20417;-92
2023/01/18 04:19:42;;;;;;;10.52;5.43;;;1.30;99.90;;;;;;4918909;29;20035;-93
2023/01/18 04:22:08;;;;;;;9.43;5.63;;;1.30;99.90;;;;;;4919066;29;20035;-94
2023/01/18 04:24:34;;;;;;;10.13;5.45;;;1.30;99.90;;;;;;4935948;29;20502;-94
2023/01/18 04:27:00;;;;;;;10.48;5.65;;;1.30;99.90;;;;;;4920212;29;20035;-94
2023/01/18 04:29:27;;;;;;;10.20;5.50;;;1.30;99.90;;;;;;4924878;29;20127;-93
2023/01/18 04:31:52;;;;;;;8.18;4.30;;;1.30;99.90;;;;;;4923307;29;20088;-94
2023/01/18 04:34:21;;;;;;;11.23;5.07;;;1.30;99.90;;;;;;4922276;29;20118;-94
2023/01/18 04:36:46;;;;;;;9.13;4.72;;;1.30;99.90;;;;;;4922135;29;20031;-92
2023/01/18 04:39:13;;;;;;;5.03;3.20;;;1.20;99.90;;;;;;4922052;29;20069;-94
2023/01/18 04:41:39;;;;;;;11.07;4.00;;;1.30;99.90;;;;;;4921970;29;20083;-93
2023/01/18 04:44:05;;;;;;;6.50;3.63;;;1.30;99.90;;;;;;4939106;29;20047;-94
2023/01/18 04:46:30;;;;;;;5.00;3.35;;;1.30;99.90;;;;;;4921861;29;20035;-92
2023/01/18 04:48:56;;;;;;;5.15;3.17;;;1.30;99.90;;;;;;4922087;29;20019;-93
2023/01/18 04:51:26;;;;;;;4.65;2.80;;;1.30;99.90;;;;;;4921725;29;20139;-94
2023/01/18 04:53:52;;;;;;;5.80;2.80;;;1.30;99.90;;;;;;4922027;29;20035;-96
2023/01/18 04:56:18;;;;;;;5.13;2.95;;;1.30;99.90;;;;;;4921976;29;20442;-95
2023/01/18 04:58:44;;;;;;;3.83;2.80;;;1.30;99.90;;;;;;4922060;29;20024;-94
2023/01/18 05:01:13;;;;;;;3.45;2.00;;;1.30;99.90;;;;;;4938879;29;20038;-95
2023/01/18 05:03:41;;;;;;;2.97;2.38;;;1.30;99.90;;;;;;4938713;29;20063;-95
2023/01/18 05:06:09;;;;;;;3.58;2.00;;;1.30;99.90;;;;;;4922177;29;20118;-94
2023/01/18 05:08:34;;;;;;;1.95;1.73;;;1.30;99.90;;;;;;4941324;29;20032;-94
2023/01/18 05:11:05;;;;;;;5.05;2.45;;;1.30;99.90;;;;;;4947994;29;20053;-94
2023/01/18 05:13:32;;;;;;;;;;;1.30;99.90;;;;;;4946781;29;20051;-94
2023/01/18 05:15:59;;;;;;;3.17;2.28;;;1.30;99.90;;;;;;4944806;29;19911;-92
2023/01/18 05:18:24;;;;;;;3.35;1.95;;;1.30;99.90;;;;;;4941218;29;20047;-94
2023/01/18 05:20:50;;;;;;;4.82;2.22;;;1.30;99.90;;;;;;4922626;29;20110;-94
2023/01/18 05:23:16;;;;;;;7.60;2.75;;;1.30;99.90;;;;;;4921027;29;20590;-93
2023/01/18 05:25:42;;;;;;;3.60;2.60;;;1.30;99.90;;;;;;4920465;29;20042;-95
2023/01/18 05:28:08;;;;;;;5.22;2.53;;;1.30;99.90;;;;;;4920805;29;20031;-94
2023/01/18 05:30:39;;;;;;;3.83;2.42;;;1.30;99.90;;;;;;4920648;29;20028;-95
2023/01/18 05:33:04;;;;;;;5.60;2.90;;;1.20;99.90;;;;;;4920391;29;20384;-94
2023/01/18 05:35:31;;;;;;;3.95;2.78;;;1.20;99.90;;;;;;4920345;29;20031;-95
2023/01/18 05:37:57;;;;;;;3.33;2.30;;;1.30;99.90;;;;;;4919843;29;20523;-95
2023/01/18 05:40:22;;;;;;;7.18;3.08;;;1.30;99.90;;;;;;4921096;29;20209;-95
2023/01/18 05:42:48;;;;;;;4.38;2.60;;;1.20;99.90;;;;;;4938263;29;20055;-95
2023/01/18 05:45:14;;;;;;;3.53;2.78;;;1.30;99.90;;;;;;4921239;29;20111;-93
2023/01/18 05:47:40;;;;;;;7.03;3.15;;;1.20;99.90;;;;;;4938214;29;20055;-94
2023/01/18 05:50:07;;;;;;;4.15;2.97;;;1.30;99.90;;;;;;4937655;29;20060;-93
2023/01/18 05:52:33;;;;;;;4.28;2.70;;;1.20;99.90;;;;;;4937536;29;20114;-95
2023/01/18 05:54:59;;;;;;;4.50;2.85;;;1.30;99.90;;;;;;4921224;29;20034;-94
2023/01/18 05:57:24;;;;;;;12.60;3.25;;;1.20;99.90;;;;;;4938077;29;20032;-93
2023/01/18 05:59:50;;;;;;;6.68;3.22;;;1.20;99.90;;;;;;4921142;29;20096;-93
2023/01/18 06:02:17;;;;;;;9.10;2.75;;;1.20;99.90;;;;;;4937939;29;20024;-92
2023/01/18 06:04:43;;;;;;;6.38;3.10;;;1.20;99.90;;;;;;4920982;29;20027;-93
2023/01/18 06:07:10;;;;;;;6.53;2.40;;;1.30;99.90;;;;;;4937535;29;20115;-95
2023/01/18 06:09:36;;;;;;;4.80;2.42;;;1.20;99.90;;;;;;4919495;29;20028;-94
2023/01/18 06:12:02;;;;;;;6.32;3.15;;;1.30;99.90;;;;;;4937701;29;20055;-93
2023/01/18 06:14:28;;;;;;;7.03;2.83;;;1.20;99.90;;;;;;4920634;29;20114;-93
2023/01/18 06:16:53;;;;;;;6.22;2.92;;;1.30;99.90;;;;;;4920436;29;20481;-93
2023/01/18 06:19:19;;;;;;;5.78;2.22;;;1.30;99.90;;;;;;4920347;29;20501;-92
2023/01/18 06:21:45;;;;;;;6.30;2.28;;;1.30;99.90;;;;;;4920848;29;20482;-95
2023/01/18 06:24:12;;;;;;;2.58;1.90;;;1.30;99.90;;;;;;4921056;29;20023;-94
2023/01/18 06:26:38;;;;;;;3.88;1.83;;;1.30;99.90;;;;;;4921388;29;20118;-93
2023/01/18 06:29:04;;;;;;;6.07;2.10;;;1.30;99.90;;;;;;4920899;29;20036;-94
2023/01/18 06:31:29;;;;;;;8.23;2.40;;;1.30;99.90;;;;;;4920226;29;20035;-94
2023/01/18 06:33:55;;;;;;;6.38;1.90;;;1.30;99.90;;;;;;4937028;29;20035;-93
2023/01/18 06:36:21;;;;;;;5.05;1.73;;;1.30;99.90;;;;;;4936835;29;20082;-95
2023/01/18 06:38:46;;;;;;;3.28;1.85;;;1.30;99.90;;;;;;4937203;29;20024;-93
2023/01/18 06:41:12;;;;;;;4.88;1.85;;;1.30;99.90;;;;;;4920209;29;20038;-96
2023/01/18 06:43:38;;;;;;;4.32;1.92;;;1.40;99.90;;;;;;4920004;29;20028;-95
2023/01/18 06:46:06;;;;;;;6.40;1.70;;;1.30;99.90;;;;;;4919854;29;20032;-95
2023/01/18 06:48:32;;;;;;;5.80;1.60;;;1.30;99.90;;;;;;4936887;29;20039;-94
2023/01/18 06:50:58;;;;;;;4.88;1.70;;;1.30;99.90;;;;;;4936607;29;20048;-94
2023/01/18 06:53:24;;;;;;;5.80;1.40;;;1.30;99.90;;;;;;4919648;29;20043;-93
2023/01/18 06:55:58;;;;;;;5.47;1.73;;;1.30;99.90;;;;;;4920139;29;20040;-94
2023/01/18 06:58:25;;;;;;;3.70;1.55;;;1.30;99.90;;;;;;4919933;29;20489;-94
2023/01/18 07:00:58;;;;;;;9.48;1.60;;;1.30;99.90;;;;;;4952160;29;20044;-93
2023/01/18 07:03:28;;;;;;;1.85;1.10;;;1.30;99.90;;;;;;4921261;29;20629;-94
2023/01/18 07:05:56;;;;;;;2.85;1.73;;;1.20;99.90;;;;;;4920561;29;20020;-94
2023/01/18 07:08:22;;;;;;;6.40;1.55;;;1.30;99.90;;;;;;4920390;29;20054;-93
2023/01/18 07:10:48;;;;;;;3.38;1.60;;;1.30;99.90;;;;;;4922088;29;20027;-93
2023/01/18 07:13:14;;;;;;;7.18;1.67;;;1.20;99.90;;;;;;4921692;29;20023;-93
2023/01/18 07:15:40;;;;;;;2.28;1.48;;;1.20;99.90;;;;;;4922997;29;20102;-95
2023/01/18 07:18:06;;;;;;;2.90;1.83;;;1.20;99.90;;;;;;4926112;29;20594;-94
2023/01/18 07:20:32;;;;;;;4.63;1.30;;;1.20;99.90;;;;;;4928246;29;20042;-94
2023/01/18 07:22:58;;;;;;;6.43;1.55;;;1.20;99.90;;;;;;4930062;29;20098;-93
2023/01/18 07:25:24;;;;;;;2.70;1.77;;;1.20;99.90;;;;;;4932736;29;20095;-94
2023/01/18 07:27:50;;;;;;;6.30;1.88;;;1.10;99.90;;;;;;4938210;29;20023;-93
2023/01/18 07:30:16;;;;;;;10.57;2.22;;;1.20;99.90;;;;;;4935572;29;20031;-93
2023/01/18 07:32:51;;;;;;;7.03;2.55;;;1.10;99.90;;;;;;4934999;29;20020;-93
2023/01/18 07:35:18;;;;;;;4.78;2.67;;;1.10;99.90;;;;;;4945864;29;20031;-95
2023/01/18 07:37:53;;;;;;;3.65;2.17;;;1.10;99.90;;;;;;4931653;29;20051;-96
2023/01/18 07:40:20;;;;;;;4.63;2.30;;;1.10;99.90;;;;;;4929961;29;20027;-93
2023/01/18 07:42:47;;;;;;;8.90;2.47;;;1.10;99.90;;;;;;4932299;29;20031;-95
2023/01/18 07:45:12;;;;;;;8.15;2.80;;;1.10;99.90;;;;;;4930788;29;20024;-94
2023/01/18 07:47:42;;;;;;;11.13;2.88;;;1.00;99.90;;;;;;4938981;29;20028;-95
2023/01/18 07:50:08;;;;;;;5.47;2.22;;;1.10;99.90;;;;;;4938526;29;20060;-95
2023/01/18 07:52:35;;;;;;;10.88;2.95;;;1.00;99.90;;;;;;4934442;29;20048;-92
2023/01/18 07:55:00;;;;;;;8.80;2.53;;;1.00;99.90;;;;;;4925257;29;20044;-96
2023/01/18 07:57:26;;;;;;;5.20;2.50;;;1.00;99.90;;;;;;4933263;29;20051;-95
2023/01/18 07:59:52;;;;;;;7.50;3.00;;;1.00;99.90;;;;;;4941149;28;20024;-90
2023/01/18 08:02:17;;;;;;;7.28;3.08;;;1.00;99.90;;;;;;4944627;28;20020;-94
2023/01/18 08:04:48;;;;;;;7.15;2.95;;;1.00;99.90;;;;;;4939702;29;20122;-94
2023/01/18 08:07:14;;;;;;;6.57;3.10;;;1.00;99.90;;;;;;4931564;29;20034;-93
2023/01/18 08:09:40;;;;;;;7.13;3.17;;;1.00;99.90;;;;;;4925392;29;20039;-95
2023/01/18 08:12:06;;;;;;;6.70;2.92;;;1.00;99.90;;;;;;4924592;29;20046;-95
2023/01/18 08:14:32;;;;;;;6.43;2.90;;;1.00;99.90;;;;;;4923115;29;20051;-94
2023/01/18 08:16:58;;;;;;;8.02;2.88;;;0.90;99.90;;;;;;4922189;29;20019;-94
2023/01/18 08:19:24;;;;;;;6.72;2.90;;;0.90;99.90;;;;;;4923424;29;20049;-95
2023/01/18 08:21:49;;;;;;;11.23;3.40;;;1.00;99.90;;;;;;4928495;29;20070;-95
2023/01/18 08:24:15;;;;;;;6.72;2.97;;;0.90;99.90;;;;;;4934635;29;20016;-96
2023/01/18 08:26:41;;;;;;;4.13;2.78;;;0.90;99.90;;;;;;4937444;29;20034;-95
2023/01/18 08:29:06;;;;;;;12.32;3.17;;;0.90;99.90;;;;;;4935400;29;20079;-95
2023/01/18 08:31:32;;;;;;;10.35;3.20;;;0.90;99.90;;;;;;4938851;29;20067;-95
2023/01/18 08:34:00;;;;;;;7.30;2.92;;;0.90;99.90;;;;;;4935978;29;20039;-94
2023/01/18 08:36:30;;;;;;;5.40;2.65;;;0.90;99.90;;;;;;4939788;29;20035;-95
2023/01/18 08:38:56;;;;;;;8.15;3.08;;;0.90;99.90;;;;;;4938548;29;20040;-94
2023/01/18 08:41:28;;;;;;;5.25;2.90;;;0.90;99.90;;;;;;4937581;29;20091;-94
2023/01/18 08:43:58;;;;;;;6.20;2.10;;;1.00;99.90;;;;;;4954321;29;20034;-94
2023/01/18 08:46:24;;;;;;;4.85;2.70;;;0.90;99.90;;;;;;4942605;29;20020;-95
2023/01/18 08:48:54;;;;;;;5.65;2.75;;;0.90;99.90;;;;;;4937693;29;20052;-93
2023/01/18 08:51:21;;;;;;;;;;;0.90;99.90;;;;;;4935981;29;20063;-93
2023/01/18 08:53:50;;;;;;;10.43;3.00;;;0.90;99.90;;;;;;4942978;29;19918;-94
2023/01/18 08:56:17;;;;;;;7.22;2.38;;;0.90;99.90;;;;;;4944661;28;20019;-94
2023/01/18 08:58:43;;;;;;;12.40;3.58;;;1.00;99.90;;;;;;4945668;28;20083;-92
2023/01/18 09:01:10;;;;;;;5.88;3.13;;;1.00;99.90;;;;;;4945518;29;20032;-94
2023/01/18 09:03:36;;;;;;;7.45;3.40;;;1.00;99.90;;;;;;4931708;29;20039;-92
2023/01/18 09:06:08;;;;;;;7.00;2.83;;;1.00;99.90;;;;;;4916759;29;20028;-95
2023/01/18 09:08:34;;;;;;;5.25;3.05;;;1.00;99.90;;;;;;4917740;29;20464;-92
2023/01/18 09:11:02;;;;;;;6.40;3.33;;;1.00;99.90;;;;;;4921627;29;20186;-93
2023/01/18 09:13:28;;;;;;;5.72;3.00;;;1.00;99.90;;;;;;4921375;29;20118;-94
2023/01/18 09:15:58;;;;;;;11.27;3.10;;;1.00;99.90;;;;;;4921725;29;20067;-94
2023/01/18 09:18:24;;;;;;;14.05;3.47;;;1.00;99.90;;;;;;4923131;29;20032;-93
2023/01/18 09:20:50;;;;;;;9.25;3.00;;;1.10;99.90;;;;;;4923763;29;20058;-94
2023/01/18 09:23:16;;;;;;;8.90;3.58;;;1.10;99.90;;;;;;4922490;29;20027;-95
2023/01/18 09:25:42;;;;;;;5.95;2.88;;;1.10;99.90;;;;;;4922047;29;20031;-96
2023/01/18 09:28:08;;;;;;;6.72;3.50;;;1.00;99.90;;;;;;4922445;29;20495;-94
2023/01/18 09:30:34;;;;;;;6.30;3.20;;;1.10;99.90;;;;;;4923397;29;20038;-94
2023/01/18 09:33:00;;;;;;;8.85;3.10;;;1.10;99.90;;;;;;4923189;29;20034;-92
2023/01/18 09:35:26;;;;;;;5.40;3.28;;;1.10;99.90;;;;;;4925929;29;20389;-94
2023/01/18 09:37:53;;;;;;;8.23;3.35;;;1.10;99.90;;;;;;4925716;29;20031;-94
2023/01/18 09:40:21;;;;;;;9.15;4.03;;;1.20;99.90;;;;;;4925108;29;20130;-93
2023/01/18 09:42:50;;;;;;;5.40;3.58;;;1.20;99.90;;;;;;4923783;29;20083;-94
2023/01/18 09:45:33;;;;;;;8.88;4.55;;;1.20;99.90;;;;;;4924294;29;20126;-94
2023/01/18 09:48:05;;;;;;;11.05;4.88;;;1.30;99.90;;;;;;4924236;29;20043;-93
2023/01/18 09:50:41;;;;;;;12.27;4.68;;;1.30;99.90;;;;;;4922281;29;20031;-92
2023/01/18 09:53:22;;;;;;;6.35;4.35;;;1.40;99.90;;;;;;4921978;29;20043;-93
2023/01/18 09:55:58;;;;;;;15.02;4.63;;;1.60;99.90;;;;;;4922248;29;20024;-95
2023/01/18 09:58:37;;;;;;;8.70;4.03;;;1.70;99.90;;;;;;4922239;29;20032;-95
2023/01/18 10:01:28;;;;;;;8.27;4.40;;;1.80;99.90;;;;;;4922816;29;20048;-94
2023/01/18 10:03:57;;;;;;;;;;;1.90;99.90;;;;;;4922412;29;20035;-95
2023/01/18 10:06:42;;;;;;;10.43;5.10;;;1.90;99.90;;;;;;4924729;29;19987;-93
2023/01/18 10:09:14;;;;;;;10.50;3.97;;;1.90;99.90;;;;;;4939716;29;20028;-94
2023/01/18 10:11:58;;;;;;;9.90;3.92;;;2.10;99.90;;;;;;4920631;29;20030;-93
2023/01/18 10:14:42;;;;;;;7.80;3.75;;;2.40;99.90;;;;;;4920511;29;20036;-94
2023/01/18 10:17:20;;;;;;;8.55;4.30;;;2.80;99.90;;;;;;4919924;29;20020;-94
2023/01/18 10:19:46;;;;;;;11.98;4.13;;;3.10;99.90;;;;;;4920009;29;20577;-95
2023/01/18 10:22:30;;;;;;;12.68;4.63;;;3.30;99.90;;;;;;4919748;29;20024;-92
2023/01/18 10:25:13;;;;;;;11.07;4.15;;;3.50;99.90;;;;;;4919203;29;20074;-92
2023/01/18 10:27:48;;;;;;;9.00;4.03;;;3.80;99.90;;;;;;4919855;29;20028;-92
2023/01/18 10:30:50;;;;;;;7.05;3.10;;;4.20;99.90;;;;;;4921423;29;20126;-92
2023/01/18 10:33:21;;;;;;;7.40;2.65;;;4.50;99.90;;;;;;4922373;29;20047;-93
2023/01/18 10:36:09;;;;;;;9.25;2.63;;;4.70;99.90;;;;;;4920865;29;20031;-92
2023/01/18 10:38:35;;;;;;;6.43;2.22;;;4.80;99.90;;;;;;4919686;29;20043;-91
2023/01/18 10:41:01;;;;;;;18.35;2.25;;;4.80;99.90;;;;;;4920548;29;20035;-92
2023/01/18 10:43:30;;;;;;;4.55;1.92;;;4.80;99.90;;;;;;4919932;29;20351;-94
2023/01/18 10:45:56;;;;;;;3.67;1.30;;;4.90;99.90;;;;;;4916217;29;20063;-93
2023/01/18 10:48:32;;;;;;;5.45;2.75;;;5.00;99.90;;;;;;4918443;29;20051;-94
2023/01/18 10:51:01;;;;;;;6.70;2.20;;;5.00;99.90;;;;;;4918436;29;20114;-92
2023/01/18 10:53:35;;;;;;;5.10;2.13;;;5.00;99.90;;;;;;4932951;29;20028;-94
2023/01/18 10:56:09;;;;;;;6.70;2.53;;;4.90;99.90;;;;;;4919077;29;20039;-92
2023/01/18 10:58:51;;;;;;;11.82;5.47;;;4.90;99.90;;;;;;4918497;29;20066;-91
2023/01/18 11:01:26;;;;;;;10.10;3.72;;;5.00;99.90;;;;;;4917925;29;20059;-92
2023/01/18 11:04:18;;;;;;;12.38;3.03;;;5.20;99.90;;;;;;4916727;29;20116;-93
2023/01/18 11:06:46;;;;;;;8.88;4.20;;;5.40;99.90;;;;;;4914675;29;20111;-94
2023/01/18 11:09:40;;;;;;;9.02;4.40;;;5.60;99.90;;;;;;4919176;29;20059;-92
2023/01/18 11:12:32;;;;;;;9.85;5.18;;;5.60;99.90;;;;;;4933397;29;20095;-92
2023/01/18 11:15:15;;;;;;;14.73;4.50;;;5.70;99.90;;;;;;4919669;29;20512;-92
2023/01/18 11:17:59;;;;;;;5.90;2.05;;;5.70;99.90;;;;;;4935741;29;20032;-93
2023/01/18 11:20:48;;;;;;;5.43;1.90;;;5.80;99.90;;;;;;4918053;29;20042;-91
2023/01/18 11:23:36;;;;;;;4.88;1.67;;;5.90;99.90;;;;;;4917741;29;20505;-93
2023/01/18 11:26:15;;;;;;;6.18;1.20;;;6.30;99.90;;;;;;4931971;29;20555;-92
2023/01/18 11:29:04;;;;;;;5.05;2.10;;;6.60;99.90;;;;;;4931869;29;20024;-91
2023/01/18 11:31:44;;;;;;;6.97;1.40;;;6.60;99.90;;;;;;4916430;29;20055;-91
2023/01/18 11:34:30;;;;;;;5.97;1.35;;;6.40;99.90;;;;;;4918449;29;20031;-92
2023/01/18 11:36:59;;;;;;;4.35;1.60;;;6.30;99.90;;;;;;4917082;29;20468;-89
2023/01/18 11:39:36;;;;;;;3.03;1.10;;;6.10;99.90;;;;;;4921347;29;20059;-92
2023/01/18 11:42:13;;;;;;;4.57;1.50;;;6.20;99.90;;;;;;4921612;29;20028;-91
2023/01/18 11:45:03;;;;;;;5.53;1.20;;;6.60;99.90;;;;;;4920311;29;20040;-91
2023/01/18 11:47:46;;;;;;;4.80;1.23;;;7.10;99.90;;;;;;4920635;29;20051;-92
2023/01/18 11:50:28;;;;;;;5.72;1.25;;;7.60;99.90;;;;;;4934872;29;20059;-91
2023/01/18 11:53:13;;;;;;;5.63;1.15;;;7.90;99.10;;;;;;4934770;29;20166;-92
2023/01/18 11:56:05;;;;;;;9.63;1.40;;;8.20;97.60;;;;;;4935608;29;20036;-93
2023/01/18 11:58:33;;;;;;;5.60;0.98;;;8.50;96.20;;;;;;4919103;29;20119;-91
2023/01/18 12:01:20;;;;;;;8.57;1.38;;;8.80;94.80;;;;;;4921403;29;20043;-91
2023/01/18 12:03:58;;;;;;;6.43;1.55;;;9.00;93.60;;;;;;4937156;29;20039;-90
2023/01/18 12:06:48;;;;;;;2.67;1.25;;;9.40;92.90;;;;;;4938924;29;20087;-92
2023/01/18 12:09:36;;;;;;;4.32;1.00;;;9.80;92.00;;;;;;4922196;29;20050;-92
2023/01/18 12:12:17;;;;;;;8.27;1.05;;;10.00;91.00;;;;;;4922882;29;20028;-91
2023/01/18 12:15:16;;;;;;;6.47;1.60;;;10.20;89.80;;;;;;4922056;29;20028;-93
2023/01/18 12:17:47;;;;;;;6.03;1.52;;;10.60;89.30;;;;;;4922126;29;20031;-93
2023/01/18 12:20:24;;;;;;;7.65;2.53;;;10.80;87.50;;;;;;4922123;29;20040;-92
2023/01/18 12:23:25;;;;;;;6.22;2.45;;;11.00;86.70;;;;;;4921973;29;20023;-91
2023/01/18 12:26:00;;;;;;;10.70;1.98;;;11.30;86.30;;;;;;4921903;29;20028;-90
2023/01/18 12:28:46;;;;;;;7.30;2.92;;;11.50;82.70;;;;;;4921569;29;20019;-91
2023/01/18 12:31:14;;;;;;;7.03;1.50;;;11.50;81.00;;;;;;4921555;29;20028;-90
2023/01/18 12:33:48;;;;;;;9.15;1.60;;;11.40;80.50;;;;;;4923980;29;20035;-91
2023/01/18 12:36:39;;;;;;;5.57;1.48;;;11.40;80.80;;;;;;4935286;29;20541;-93
2023/01/18 12:39:33;;;;;;;8.70;1.65;;;11.60;80.90;;;;;;4903020;29;20051;-91
2023/01/18 12:42:27;;;;;;;3.38;1.30;;;11.80;80.10;;;;;;4882913;29;20039;-91
2023/01/18 12:45:04;;;;;;;3.33;1.30;;;12.00;78.60;;;;;;4910526;29;20482;-92
2023/01/18 12:47:38;;;;;;;7.43;1.40;;;12.10;77.60;;;;;;4927063;29;20111;-92
2023/01/18 12:50:26;;;;;;;5.95;1.40;;;12.20;76.60;;;;;;4919389;29;20048;-92
2023/01/18 12:53:02;;;;;;;9.50;1.60;;;12.30;76.10;;;;;;4936048;29;20540;-92
2023/01/18 12:55:32;;;;;;;4.90;1.23;;;12.40;75.50;;;;;;4921215;29;20059;-92
2023/01/18 12:58:00;;;;;;;6.95;2.25;;;12.60;75.50;;;;;;4911676;29;20499;-94
2023/01/18 13:00:32;;;;;;;11.40;1.67;;;12.80;74.80;;;;;;4920690;29;20050;-94
2023/01/18 13:02:58;;;;;;;5.57;1.27;;;12.70;73.10;;;;;;4921630;29;20393;-93
2023/01/18 13:05:54;;;;;;;6.25;1.27;;;12.30;71.70;;;;;;4921232;29;20034;-92
2023/01/18 13:08:53;;;;;;;6.35;1.42;;;12.20;72.80;;;;;;4919996;29;20119;-95
2023/01/18 13:11:34;;;;;;;6.57;1.20;;;12.10;72.80;;;;;;4933743;29;20028;-94
2023/01/18 13:14:24;;;;;;;5.88;1.20;;;12.30;73.50;;;;;;4931486;29;20027;-94
2023/01/18 13:17:04;;;;;;;8.27;1.77;;;12.60;72.70;;;;;;4892458;29;20031;-93
2023/01/18 13:19:44;;;;;;;10.05;1.60;;;12.70;72.20;;;;;;4919278;29;21087;-93
2023/01/18 13:22:37;;;;;;;8.10;1.83;;;12.70;72.10;;;;;;4935315;29;20038;-95
2023/01/18 13:25:18;;;;;;;5.25;1.33;;;12.80;71.20;;;;;;4919399;29;20492;-94
2023/01/18 13:28:02;;;;;;;10.70;1.60;;;12.70;71.30;;;;;;4932458;29;20040;-94
2023/01/18 13:30:45;;;;;;;6.72;1.15;;;12.80;71.20;;;;;;4921081;29;20389;-94
2023/01/18 13:33:13;;;;;;;5.88;1.70;;;13.20;71.20;;;;;;4936006;29;20024;-94
2023/01/18 13:36:00;;;;;;;4.20;1.20;;;13.70;70.40;;;;;;4920827;29;20110;-95
2023/01/18 13:38:28;;;;;;;9.68;1.20;;;13.90;69.40;;;;;;4922068;29;20035;-94
2023/01/18 13:41:03;;;;;;;4.95;1.05;;;14.20;68.80;;;;;;4921468;29;20512;-94
2023/01/18 13:43:35;;;;;;;4.47;1.08;;;14.40;67.90;;;;;;4922680;29;20039;-94
2023/01/18 13:46:07;;;;;;;3.28;1.10;;;14.30;67.30;;;;;;4920703;29;20035;-94
2023/01/18 13:48:43;;;;;;;9.73;1.27;;;14.40;67.20;;;;;;4937211;29;20153;-93
2023/01/18 13:51:10;;;;;;;4.05;1.00;;;14.10;66.50;;;;;;4920519;29;20126;-94